Time;durP1;ratioP1;P1;durP2;ratioP2;P2;SDS_P1;SDS_P2;PMS_P1;PMS_P2;Temp;Humidity;BMP_temperature;BMP_pressure;BME280_temperature;BME280_humidity;BME280_pressure;Samples;Min_cycle;Max_cycle;Signal;HPM_P1;HPM_P2
2023/01/02 00:02:05;;;;;;;22.10;9.45;;;;;;;13.19;66.33;100362.72;10348790;28;20077;-66
2023/01/02 00:07:07;;;;;;;21.73;11.30;;;;;;;13.16;65.98;100364.94;10345358;28;20060;-65
2023/01/02 00:17:19;;;;;;;19.05;9.40;;;;;;;13.10;66.18;100359.28;10332428;28;20081;-69
2023/01/02 00:22:20;;;;;;;21.02;9.27;;;;;;;13.07;66.34;100348.88;10334804;28;20074;-67
2023/01/02 00:27:22;;;;;;;20.55;8.75;;;;;;;13.00;66.67;100339.06;10338331;28;20077;-69
2023/01/02 00:32:23;;;;;;;16.42;7.20;;;;;;;12.94;66.35;100337.94;10346092;28;20062;-69
2023/01/02 00:37:24;;;;;;;17.23;7.40;;;;;;;12.89;66.58;100321.50;10353142;28;20058;-71
2023/01/02 00:42:26;;;;;;;17.60;7.18;;;;;;;12.83;66.57;100319.56;10344359;28;20061;-71
2023/01/02 00:47:27;;;;;;;13.27;6.38;;;;;;;12.83;66.61;100325.78;10342347;28;20504;-68
2023/01/02 00:52:29;;;;;;;15.15;7.63;;;;;;;12.82;66.95;100320.59;10352568;28;20108;-72
2023/01/02 00:57:30;;;;;;;14.25;7.07;;;;;;;12.78;67.26;100311.22;10315666;28;20069;-68
2023/01/02 01:02:32;;;;;;;14.00;5.90;;;;;;;12.79;66.71;100305.63;10339625;28;20046;-71
2023/01/02 01:07:33;;;;;;;20.95;5.80;;;;;;;12.81;66.69;100311.66;10355875;28;20054;-71
2023/01/02 01:12:34;;;;;;;14.48;6.43;;;;;;;12.83;66.52;100301.50;10355936;28;20046;-70
2023/01/02 01:17:36;;;;;;;13.70;6.93;;;;;;;12.78;67.20;100298.56;10353417;28;20077;-71
2023/01/02 01:22:37;;;;;;;16.30;5.30;;;;;;;12.87;66.87;100293.88;10346309;28;20042;-71
2023/01/02 01:27:39;;;;;;;11.05;4.68;;;;;;;12.93;67.07;100284.19;10340787;28;20050;-69
2023/01/02 01:32:40;;;;;;;7.90;4.45;;;;;;;13.05;66.47;100302.38;10333268;28;20046;-70
2023/01/02 01:37:41;;;;;;;9.55;4.05;;;;;;;13.14;66.19;100294.13;10343199;28;20049;-70
2023/01/02 01:42:43;;;;;;;10.65;3.97;;;;;;;13.22;66.35;100294.00;10327544;28;20180;-70
2023/01/02 01:47:53;;;;;;;11.18;4.30;;;;;;;13.31;65.95;100310.91;10317188;28;20057;-70
2023/01/02 01:53:07;;;;;;;12.27;4.40;;;;;;;13.39;66.03;100308.06;10338664;28;20050;-69
2023/01/02 01:58:18;;;;;;;11.48;4.25;;;;;;;13.48;65.67;100304.19;10351412;28;20060;-66
2023/01/02 02:03:22;;;;;;;9.60;4.03;;;;;;;13.54;65.14;100305.28;10363915;28;20081;-66
2023/01/02 02:08:55;;;;;;;9.80;4.30;;;;;;;13.61;65.15;100311.56;10350573;28;20078;-67
2023/01/02 02:13:58;;;;;;;9.63;4.30;;;;;;;13.70;64.63;100302.28;10353024;28;20041;-66
2023/01/02 02:19:48;;;;;;;9.90;4.18;;;;;;;13.72;64.37;100300.19;10361233;28;20047;-66
2023/01/02 02:24:52;;;;;;;7.97;4.43;;;;;;;13.73;64.33;100293.78;10353637;28;20043;-68
2023/01/02 02:30:15;;;;;;;9.43;3.92;;;;;;;13.73;64.10;100293.78;10361309;28;20306;-68
2023/01/02 02:35:48;;;;;;;7.97;3.67;;;;;;;13.68;64.19;100290.81;10351665;28;20707;-67
2023/01/02 02:41:13;;;;;;;12.00;4.25;;;;;;;13.62;64.28;100289.75;10353703;28;20050;-66
2023/01/02 02:46:21;;;;;;;10.75;4.63;;;;;;;13.52;64.19;100280.34;10358264;28;20073;-67
2023/01/02 02:51:34;;;;;;;8.15;4.13;;;;;;;13.45;64.04;100278.44;10354698;28;20047;-66
2023/01/02 02:56:35;;;;;;;11.40;4.70;;;;;;;13.39;64.18;100268.41;10362619;28;20077;-66
2023/01/02 03:01:37;;;;;;;17.95;6.03;;;;;;;13.31;64.24;100268.56;10357473;28;20050;-67
2023/01/02 03:07:20;;;;;;;11.18;5.55;;;;;;;13.19;64.38;100260.13;10354205;28;20050;-66
2023/01/02 03:12:59;;;;;;;12.32;5.07;;;;;;;13.10;64.50;100255.91;10349568;28;20054;-68
2023/01/02 03:18:03;;;;;;;12.05;4.85;;;;;;;13.02;64.71;100248.78;10350438;28;20035;-67
2023/01/02 03:23:12;;;;;;;13.65;5.80;;;;;;;12.94;64.66;100245.38;10356103;28;20105;-67
2023/01/02 03:28:17;;;;;;;13.93;5.38;;;;;;;12.89;65.12;100245.94;10354033;28;20058;-66
2023/01/02 03:33:28;;;;;;;13.85;7.20;;;;;;;12.85;65.15;100250.06;10363362;28;20043;-67
2023/01/02 03:38:35;;;;;;;17.15;6.53;;;;;;;12.79;65.36;100237.34;10352436;28;20459;-66
2023/01/02 03:43:40;;;;;;;17.90;6.47;;;;;;;12.74;65.42;100229.84;10342750;28;20042;-66
2023/01/02 03:48:44;;;;;;;16.27;6.55;;;;;;;12.66;65.26;100232.69;10332853;28;20054;-67
2023/01/02 03:53:48;;;;;;;16.25;5.70;;;;;;;12.60;65.41;100249.59;10331793;28;20069;-67
2023/01/02 03:58:57;;;;;;;11.45;6.05;;;;;;;12.52;66.08;100260.53;10323005;28;20047;-67
2023/01/02 04:04:09;;;;;;;11.13;5.60;;;;;;;12.43;66.22;100268.72;10331939;28;20046;-68
2023/01/02 04:09:25;;;;;;;21.98;7.22;;;;;;;12.34;66.17;100271.72;10339459;28;20085;-67
2023/01/02 04:14:46;;;;;;;13.40;5.95;;;;;;;12.27;66.09;100263.56;10332206;28;20062;-67
2023/01/02 04:19:53;;;;;;;16.85;6.47;;;;;;;12.24;66.71;100262.09;10335063;28;20051;-67
2023/01/02 04:25:08;;;;;;;15.93;6.40;;;;;;;12.22;66.71;100257.91;10334824;28;20117;-67
2023/01/02 04:30:10;;;;;;;20.42;6.60;;;;;;;12.18;66.51;100270.91;10336777;28;20046;-68
2023/01/02 04:35:19;;;;;;;14.30;5.55;;;;;;;12.17;66.88;100273.81;10324293;28;20050;-67
2023/01/02 04:40:29;;;;;;;16.13;5.40;;;;;;;12.16;66.75;100270.25;10332627;28;20458;-67
2023/01/02 04:45:31;;;;;;;17.05;6.38;;;;;;;12.10;67.12;100285.34;10321924;28;20054;-66
2023/01/02 04:50:32;;;;;;;11.13;5.72;;;;;;;12.08;67.46;100297.31;10333562;28;20411;-67
2023/01/02 04:55:33;;;;;;;11.10;5.13;;;;;;;12.08;67.05;100306.25;10338150;28;20496;-67
2023/01/02 05:00:35;;;;;;;14.38;5.00;;;;;;;12.08;66.94;100294.63;10327328;28;20125;-68
2023/01/02 05:05:36;;;;;;;11.35;5.75;;;;;;;12.07;67.00;100301.88;10321299;28;20101;-67
2023/01/02 05:10:38;;;;;;;11.65;5.07;;;;;;;12.04;67.09;100301.41;10336109;28;20054;-68
2023/01/02 05:15:39;;;;;;;10.63;5.25;;;;;;;12.07;67.49;100309.97;10334759;28;20655;-66
2023/01/02 05:20:40;;;;;;;12.52;5.03;;;;;;;12.09;67.42;100321.38;10327341;28;20049;-67
2023/01/02 05:25:42;;;;;;;9.73;4.43;;;;;;;12.10;67.21;100304.22;10318241;28;20073;-68
2023/01/02 05:30:43;;;;;;;13.70;5.63;;;;;;;12.10;67.10;100314.13;10336274;28;20633;-67
2023/01/02 05:35:45;;;;;;;12.25;5.55;;;;;;;12.11;67.18;100315.81;10329691;28;20459;-67
2023/01/02 05:40:46;;;;;;;9.25;3.92;;;;;;;12.13;67.25;100318.34;10326417;28;20775;-69
2023/01/02 05:45:47;;;;;;;13.00;5.07;;;;;;;12.13;67.17;100326.41;10332672;28;20046;-69
2023/01/02 05:50:49;;;;;;;12.00;4.45;;;;;;;12.12;67.16;100333.63;10325483;28;20058;-68
2023/01/02 05:55:50;;;;;;;12.38;4.88;;;;;;;12.10;67.62;100336.56;10305734;28;20046;-68
2023/01/02 06:00:52;;;;;;;11.07;5.43;;;;;;;12.12;67.41;100339.03;10322141;28;20096;-67
2023/01/02 06:05:53;;;;;;;12.00;4.63;;;;;;;12.17;67.51;100341.19;10329534;28;20046;-67
2023/01/02 06:10:54;;;;;;;9.93;4.57;;;;;;;12.21;67.22;100339.78;10334579;28;20050;-67
2023/01/02 06:15:58;;;;;;;10.13;5.40;;;;;;;12.20;67.49;100324.63;10332542;28;20058;-68
2023/01/02 06:21:10;;;;;;;12.25;4.75;;;;;;;12.20;67.19;100330.03;10322538;28;20050;-67
2023/01/02 06:26:14;;;;;;;19.80;5.63;;;;;;;12.16;67.31;100334.94;10325144;28;20073;-67
2023/01/02 06:31:17;;;;;;;10.32;4.68;;;;;;;12.09;67.81;100347.50;10334749;28;20060;-67
2023/01/02 06:36:19;;;;;;;10.95;5.13;;;;;;;12.10;68.14;100351.84;10298671;28;20105;-71
2023/01/02 06:41:20;;;;;;;10.52;5.80;;;;;;;11.99;68.32;100342.41;10307126;28;20136;-68
2023/01/02 06:46:22;;;;;;;11.70;5.15;;;;;;;11.98;68.58;100350.66;10315285;28;20063;-69
2023/01/02 06:51:24;;;;;;;9.80;5.13;;;;;;;11.97;68.82;100344.44;10312338;28;20108;-68
2023/01/02 06:56:25;;;;;;;12.07;5.47;;;;;;;12.02;68.50;100338.47;10324126;28;20556;-68
2023/01/02 07:01:28;;;;;;;14.90;5.88;;;;;;;12.01;68.63;100359.22;10334312;28;20054;-68
2023/01/02 07:06:30;;;;;;;12.90;5.53;;;;;;;11.95;69.09;100341.09;10338851;28;20050;-68
2023/01/02 07:11:31;;;;;;;14.02;5.60;;;;;;;12.01;68.87;100334.97;10332934;28;20054;-67
2023/01/02 07:16:33;;;;;;;14.18;5.55;;;;;;;12.05;69.28;100332.72;10329358;28;20069;-69
2023/01/02 07:21:34;;;;;;;13.32;5.22;;;;;;;12.07;68.94;100320.75;10332591;28;20466;-69
2023/01/02 07:26:36;;;;;;;12.55;5.35;;;;;;;12.10;69.34;100315.00;10332297;28;20053;-72
2023/01/02 07:31:37;;;;;;;12.15;4.50;;;;;;;12.17;68.95;100336.63;10337179;28;20085;-73
2023/01/02 07:36:38;;;;;;;9.52;4.25;;;;;;;12.27;68.93;100341.72;10319130;28;20042;-73
2023/01/02 07:41:40;;;;;;;7.75;3.53;;;;;;;12.38;68.77;100327.78;10327997;28;20504;-71
2023/01/02 07:46:41;;;;;;;7.75;3.58;;;;;;;12.52;68.30;100328.78;10407605;23;20443;-86
2023/01/02 07:51:43;;;;;;;9.57;3.10;;;;;;;12.64;67.96;100326.44;10379367;28;20053;-84
2023/01/02 07:56:44;;;;;;;7.68;2.53;;;;;;;12.73;67.69;100336.06;10372137;28;20049;-85
2023/01/02 08:01:48;;;;;;;8.18;2.40;;;;;;;12.80;67.25;100346.94;10388394;28;20155;-85
2023/01/02 08:06:50;;;;;;;6.20;2.28;;;;;;;12.87;66.66;100356.78;10375705;28;20129;-86
2023/01/02 08:11:52;;;;;;;11.95;3.40;;;;;;;13.00;66.26;100357.94;10375189;28;20124;-86
2023/01/02 08:16:54;;;;;;;4.55;1.75;;;;;;;13.10;65.90;100374.66;10386676;28;20059;-86
2023/01/02 08:21:55;;;;;;;4.40;1.85;;;;;;;13.32;65.25;100375.50;10373726;28;20136;-84
2023/01/02 08:26:57;;;;;;;7.45;2.28;;;;;;;13.39;64.86;100371.03;10372004;28;20107;-85
2023/01/02 08:31:58;;;;;;;5.03;1.67;;;;;;;13.59;64.26;100367.66;10374901;28;20073;-84
2023/01/02 08:37:00;;;;;;;8.45;2.42;;;;;;;13.69;63.94;100389.75;10388172;28;20095;-85
2023/01/02 08:42:02;;;;;;;8.52;3.05;;;;;;;13.68;63.47;100415.94;10372879;28;20157;-86
2023/01/02 08:47:04;;;;;;;6.32;2.00;;;;;;;13.79;63.14;100409.16;10335976;28;20475;-84
2023/01/02 08:52:06;;;;;;;5.00;1.63;;;;;;;13.85;62.78;100410.25;10319824;28;20054;-86
2023/01/02 08:57:07;;;;;;;9.20;2.13;;;;;;;13.91;62.60;100411.34;10332772;28;20050;-86
2023/01/02 09:02:13;;;;;;;5.40;2.13;;;;;;;13.93;62.28;100418.22;10314562;28;20056;-85
2023/01/02 09:07:16;;;;;;;10.82;2.50;;;;;;;14.04;62.19;100424.94;10308049;28;20125;-85
2023/01/02 09:12:18;;;;;;;8.32;3.15;;;;;;;14.13;61.74;100433.75;10326950;28;20061;-84
2023/01/02 09:17:19;;;;;;;9.75;2.85;;;;;;;14.20;61.57;100437.34;10328827;28;20058;-87
2023/01/02 09:22:21;;;;;;;6.90;2.15;;;;;;;14.31;61.03;100442.16;10315571;28;20118;-85
2023/01/02 09:27:22;;;;;;;11.80;2.28;;;;;;;14.38;60.83;100448.47;10325721;28;20090;-85
2023/01/02 09:32:24;;;;;;;7.90;2.50;;;;;;;14.37;60.89;100467.59;10317930;28;20633;-87
2023/01/02 09:37:27;;;;;;;6.97;2.75;;;;;;;14.40;60.34;100468.03;10318658;28;20057;-86
2023/01/02 09:42:31;;;;;;;10.25;3.20;;;;;;;14.45;60.00;100468.28;10331045;28;20058;-85
2023/01/02 09:47:35;;;;;;;8.25;2.45;;;;;;;14.59;59.58;100471.94;10281896;28;20314;-85
2023/01/02 09:52:41;;;;;;;6.50;2.28;;;;;;;14.71;59.25;100466.81;10289263;28;20133;-86
2023/01/02 09:58:13;;;;;;;10.33;2.20;;;;;;;14.80;59.23;100481.81;10296022;28;20078;-84
2023/01/02 10:03:43;;;;;;;8.20;2.00;;;;;;;14.82;58.89;100487.88;10301772;28;20027;-89
2023/01/02 10:08:51;;;;;;;11.70;1.90;;;;;;;14.87;58.83;100492.69;10285284;28;20062;-87
2023/01/02 10:13:57;;;;;;;;;;;;;;;14.71;59.59;100493.00;10285899;28;20047;-87
2023/01/02 10:19:37;;;;;;;10.95;2.38;;;;;;;14.44;60.20;100495.53;10293992;28;19937;-91
2023/01/02 10:30:46;;;;;;;6.93;2.23;;;;;;;14.18;61.18;100491.59;1982426;23;20460;-90
2023/01/02 10:35:54;;;;;;;10.50;2.95;;;;;;;14.31;61.07;100487.31;10320405;28;20085;-87
2023/01/02 10:40:55;;;;;;;;;;;;;;;14.37;61.31;100490.06;10332136;28;20165;-88
2023/01/02 10:45:59;;;;;;;8.75;1.88;;;;;;;14.47;61.08;100490.56;10303727;28;20241;-87
2023/01/02 10:51:05;;;;;;;13.05;2.20;;;;;;;14.58;60.81;100485.66;10323597;28;20050;-87
2023/01/02 10:56:19;;;;;;;9.43;1.50;;;;;;;14.65;60.43;100492.78;10319618;28;20116;-86
2023/01/02 11:01:21;;;;;;;9.35;2.45;;;;;;;14.67;60.56;100500.69;10313822;28;20050;-88
2023/01/02 11:06:30;;;;;;;8.60;1.40;;;;;;;14.65;60.43;100506.31;10330241;28;20085;-91
2023/01/02 11:11:56;;;;;;;5.97;1.63;;;;;;;14.67;60.56;100503.38;10331135;28;20078;-85
2023/01/02 11:17:10;;;;;;;8.32;1.80;;;;;;;14.37;61.32;100511.69;10329751;28;20069;-85
2023/01/02 11:22:15;;;;;;;7.80;1.40;;;;;;;14.19;62.20;100514.06;10310595;28;20042;-85
2023/01/02 11:27:17;;;;;;;10.23;1.92;;;;;;;14.20;62.35;100511.16;10314721;28;20461;-88
2023/01/02 11:32:26;;;;;;;7.57;1.58;;;;;;;14.14;62.76;100516.50;10344098;28;20080;-88
2023/01/02 11:37:28;;;;;;;6.28;1.33;;;;;;;14.04;63.80;100501.47;10374820;28;20057;-87
2023/01/02 11:48:11;;;;;;;8.52;1.20;;;;;;;13.95;65.16;100488.28;10388423;28;20076;-88
2023/01/02 11:53:25;;;;;;;9.00;1.35;;;;;;;13.91;65.55;100489.72;10399033;28;20059;-88
2023/01/02 11:58:41;;;;;;;7.05;1.38;;;;;;;13.76;66.37;100503.28;10384394;28;20077;-90
2023/01/02 12:03:46;;;;;;;12.23;1.75;;;;;;;13.85;66.67;100502.13;10428907;23;20104;-67
2023/01/02 12:09:04;;;;;;;10.95;1.42;;;;;;;13.93;66.55;100511.97;10393015;28;20372;-68
2023/01/02 12:14:22;;;;;;;13.40;2.80;;;;;;;13.81;67.00;100520.59;10389440;28;20064;-67
2023/01/02 12:19:37;;;;;;;12.55;1.75;;;;;;;13.80;67.43;100528.88;10392744;28;20108;-68
2023/01/02 12:25:10;;;;;;;12.80;2.83;;;;;;;13.77;67.81;100527.41;10383732;28;20041;-69
2023/01/02 12:30:18;;;;;;;18.42;3.58;;;;;;;13.79;68.27;100524.53;10398962;28;20057;-67
2023/01/02 12:35:46;;;;;;;4.82;1.55;;;;;;;13.88;67.82;100529.59;10407677;28;20113;-68
2023/01/02 12:40:56;;;;;;;;;;;;;;;13.89;68.12;100542.06;10418625;28;20309;-68
2023/01/02 12:46:32;;;;;;;5.20;1.67;;;;;;;13.95;67.90;100550.44;10386684;28;19929;-67
2023/01/02 12:52:06;;;;;;;5.28;1.48;;;;;;;14.02;67.97;100537.81;10393590;28;20049;-67
2023/01/02 12:57:40;;;;;;;8.18;1.50;;;;;;;13.91;68.58;100552.69;10400143;28;20132;-68
2023/01/02 13:03:00;;;;;;;8.70;1.75;;;;;;;13.82;68.87;100553.84;10390367;28;20566;-69
2023/01/02 13:08:13;;;;;;;11.00;2.33;;;;;;;13.64;69.80;100556.97;10384649;28;20268;-68
2023/01/02 13:13:15;;;;;;;8.25;2.05;;;;;;;13.58;70.50;100552.34;10384085;28;20470;-69
2023/01/02 13:18:46;;;;;;;13.27;2.72;;;;;;;13.52;70.96;100551.22;10361985;28;20054;-68
2023/01/02 13:24:02;;;;;;;8.52;2.85;;;;;;;13.59;71.11;100546.75;10384332;28;20365;-67
2023/01/02 13:29:07;;;;;;;9.80;1.55;;;;;;;13.59;71.30;100554.84;10380408;28;20573;-68
2023/01/02 13:34:14;;;;;;;11.80;2.00;;;;;;;13.69;70.75;100555.38;10363819;28;20049;-69
2023/01/02 13:39:27;;;;;;;13.50;4.05;;;;;;;13.76;70.67;100562.72;10384648;28;20995;-68
2023/01/02 13:44:35;;;;;;;13.27;3.78;;;;;;;13.78;70.49;100564.19;10364191;28;20049;-69
2023/01/02 13:49:36;;;;;;;12.27;2.38;;;;;;;13.85;70.33;100551.59;10378703;28;20085;-69
2023/01/02 13:54:37;;;;;;;12.57;2.88;;;;;;;13.92;70.56;100540.88;10382234;28;20104;-69
2023/01/02 14:00:00;;;;;;;8.30;1.95;;;;;;;13.91;70.41;100539.19;10377788;28;20049;-72
2023/01/02 14:05:40;;;;;;;15.38;3.28;;;;;;;13.97;70.68;100551.91;10378691;28;20136;-67
2023/01/02 14:10:44;;;;;;;11.95;2.28;;;;;;;14.03;70.67;100567.34;10380247;28;20446;-69
2023/01/02 14:16:23;;;;;;;9.13;2.88;;;;;;;13.97;70.93;100572.72;10363457;28;20124;-70
2023/01/02 14:21:32;;;;;;;10.25;3.10;;;;;;;13.94;71.24;100581.19;10371547;28;20123;-69
2023/01/02 14:26:36;;;;;;;7.55;2.10;;;;;;;13.92;71.43;100576.00;10379992;28;20037;-68
2023/01/02 14:31:38;;;;;;;11.02;2.92;;;;;;;14.01;71.41;100574.00;10365425;28;20053;-69
2023/01/02 14:36:42;;;;;;;6.25;2.20;;;;;;;14.01;71.49;100580.22;10373255;28;20353;-69
2023/01/02 14:47:18;;;;;;;12.05;3.65;;;;;;;13.87;71.98;100600.06;10379382;28;20135;-69
2023/01/02 14:52:27;;;;;;;8.45;3.25;;;;;;;13.83;72.22;100623.09;10384168;28;20073;-69
2023/01/02 14:57:32;;;;;;;9.68;3.17;;;;;;;13.82;72.40;100629.50;10376116;28;20104;-69
2023/01/02 15:02:40;;;;;;;12.82;3.42;;;;;;;13.63;73.16;100599.38;10377382;28;20120;-69
2023/01/02 15:07:51;;;;;;;6.10;2.72;;;;;;;13.59;73.25;100581.03;10365135;28;20045;-68
2023/01/02 15:13:07;;;;;;;12.90;3.10;;;;;;;13.51;73.48;100606.28;10355886;28;20054;-69
2023/01/02 15:18:28;;;;;;;11.65;3.97;;;;;;;13.55;73.67;100628.38;10382192;28;20136;-70
2023/01/02 15:23:29;;;;;;;9.98;3.40;;;;;;;13.49;74.14;100641.59;10385906;28;20108;-70
2023/01/02 15:28:32;;;;;;;8.07;3.90;;;;;;;13.53;73.79;100641.22;10383361;28;20072;-69
2023/01/02 15:33:34;;;;;;;8.57;3.15;;;;;;;13.39;73.97;100657.25;10384186;28;20057;-69
2023/01/02 15:38:35;;;;;;;6.32;3.17;;;;;;;13.16;75.10;100670.78;10381357;28;20684;-67
2023/01/02 15:48:59;;;;;;;14.88;3.83;;;;;;;13.12;75.05;100682.97;10380756;28;20155;-68
2023/01/02 15:54:00;;;;;;;6.28;3.42;;;;;;;13.03;75.47;100717.31;10389867;28;20479;-70
2023/01/02 15:59:44;;;;;;;10.02;3.47;;;;;;;12.93;75.88;100740.16;10403837;28;20049;-68
2023/01/02 16:04:45;;;;;;;5.38;3.00;;;;;;;12.93;75.73;100754.50;10223159;28;20141;-69
2023/01/02 16:09:54;;;;;;;11.82;2.85;;;;;;;12.73;76.63;100756.00;10347584;28;20088;-69
2023/01/02 16:14:58;;;;;;;10.10;3.17;;;;;;;12.66;77.00;100753.22;10382501;28;20042;-69
2023/01/02 16:20:10;;;;;;;9.38;4.00;;;;;;;12.59;76.78;100757.63;10382375;28;20042;-66
2023/01/02 16:25:17;;;;;;;8.88;3.17;;;;;;;12.54;77.20;100760.88;10383135;28;20081;-64
2023/01/02 16:30:29;;;;;;;13.27;4.57;;;;;;;12.55;77.29;100749.06;10385086;28;20103;-64
2023/01/02 16:35:33;;;;;;;9.35;3.78;;;;;;;12.57;77.11;100727.31;10378680;28;20522;-66
2023/01/02 16:40:43;;;;;;;9.70;4.47;;;;;;;12.65;76.82;100721.84;10387569;28;20049;-66
2023/01/02 16:46:03;;;;;;;;;;;;;;;12.57;76.57;100740.78;10389957;28;20052;-65
2023/01/02 16:51:04;;;;;;;11.25;4.93;;;;;;;12.44;76.72;100720.66;10388376;28;19925;-65
2023/01/02 16:56:09;;;;;;;12.88;6.85;;;;;;;12.35;76.66;100764.03;10380733;28;20049;-63
2023/01/02 17:01:13;;;;;;;14.00;7.72;;;;;;;12.24;77.25;100784.13;10379328;28;20211;-63
2023/01/02 17:06:17;;;;;;;13.20;6.85;;;;;;;12.25;77.01;100788.50;10387178;28;20058;-62
2023/01/02 17:11:21;;;;;;;11.57;6.20;;;;;;;12.26;77.05;100801.81;10380345;28;20085;-64
2023/01/02 17:16:23;;;;;;;11.57;7.72;;;;;;;12.25;76.96;100826.25;10385667;28;20104;-66
2023/01/02 17:21:24;;;;;;;5.70;3.33;;;;;;;12.10;77.38;100836.91;10381024;28;20372;-64
2023/01/02 17:26:33;;;;;;;5.95;1.90;;;;;;;11.97;77.61;100858.19;10387469;28;20103;-63
2023/01/02 17:31:34;;;;;;;4.90;1.70;;;;;;;11.82;78.04;100860.69;10398636;28;20045;-63
2023/01/02 17:36:36;;;;;;;3.67;1.20;;;;;;;11.74;78.76;100871.50;10398865;28;20546;-63
2023/01/02 17:41:37;;;;;;;4.53;1.17;;;;;;;11.69;78.19;100889.00;10374862;28;20104;-63
2023/01/02 17:46:39;;;;;;;2.03;1.13;;;;;;;11.67;78.41;100900.94;10373288;28;20144;-62
2023/01/02 17:52:00;;;;;;;2.35;1.25;;;;;;;11.64;78.35;100895.91;10359053;28;20041;-62
2023/01/02 17:57:01;;;;;;;3.38;1.10;;;;;;;11.60;78.08;100914.25;10380935;28;20336;-61
2023/01/02 18:02:05;;;;;;;2.47;1.33;;;;;;;11.62;78.19;100908.69;10381035;28;20077;-63
2023/01/02 18:07:06;;;;;;;2.92;1.25;;;;;;;11.56;77.74;100918.28;10374550;28;20091;-61
2023/01/02 18:12:09;;;;;;;2.00;0.90;;;;;;;11.56;77.61;100920.97;10378213;28;20053;-64
2023/01/02 18:17:22;;;;;;;4.05;0.80;;;;;;;11.56;77.14;100939.81;10378367;28;20709;-64
2023/01/02 18:22:30;;;;;;;4.85;1.38;;;;;;;11.57;76.97;100938.84;10374899;28;20060;-63
2023/01/02 18:27:33;;;;;;;3.17;1.65;;;;;;;11.54;76.79;100951.78;10379864;28;20490;-63
2023/01/02 18:32:37;;;;;;;1.50;0.90;;;;;;;11.46;77.18;100968.78;10373410;28;20061;-65
2023/01/02 18:37:40;;;;;;;2.95;1.05;;;;;;;11.47;76.55;100971.31;10378172;28;20065;-66
2023/01/02 18:42:44;;;;;;;2.40;1.00;;;;;;;11.42;76.61;100976.31;10384645;28;20050;-65
2023/01/02 18:47:50;;;;;;;2.28;0.77;;;;;;;11.40;77.00;100985.59;10379049;28;20061;-64
2023/01/02 18:52:51;;;;;;;2.10;1.10;;;;;;;11.40;76.52;100993.66;10386265;28;20069;-65
2023/01/02 18:58:42;;;;;;;1.35;0.95;;;;;;;11.35;76.30;101007.59;10386353;28;20442;-64
2023/01/02 19:03:46;;;;;;;2.38;0.90;;;;;;;11.35;76.54;101007.59;10356015;28;20076;-62
2023/01/02 19:08:48;;;;;;;2.90;0.95;;;;;;;11.34;76.12;101021.25;10386438;28;20065;-62
2023/01/02 19:13:49;;;;;;;3.95;0.80;;;;;;;11.26;76.54;101025.59;10388514;28;20085;-64
2023/01/02 19:18:58;;;;;;;2.13;1.10;;;;;;;11.24;76.62;101040.22;10383183;28;20083;-64
2023/01/02 19:24:03;;;;;;;5.78;2.05;;;;;;;11.18;76.52;101046.25;10384850;28;20060;-65
2023/01/02 19:29:10;;;;;;;10.02;2.80;;;;;;;11.14;76.78;101048.44;10383013;28;20084;-66
2023/01/02 19:34:39;;;;;;;4.82;1.98;;;;;;;11.14;76.14;101064.56;10366997;28;20057;-66
2023/01/02 19:39:47;;;;;;;4.10;1.40;;;;;;;11.16;76.22;101070.63;10370323;28;20136;-65
2023/01/02 19:44:52;;;;;;;;;;;;;;;11.11;76.15;101070.25;10387829;28;20060;-66
2023/01/02 19:49:54;;;;;;;0.82;0.60;;;;;;;11.11;75.72;101081.03;10367914;28;20011;-67
2023/01/02 19:54:56;;;;;;;1.65;0.80;;;;;;;11.09;75.86;101091.94;10384009;28;20046;-67
2023/01/02 19:59:58;;;;;;;2.50;0.80;;;;;;;11.08;75.79;101098.34;10361050;28;20052;-66
2023/01/02 20:04:59;;;;;;;2.78;0.98;;;;;;;11.06;75.59;101112.97;10381951;28;20078;-66
2023/01/02 20:10:00;;;;;;;2.65;1.30;;;;;;;10.99;75.08;101111.91;10378575;28;20115;-65
2023/01/02 20:15:07;;;;;;;4.05;0.82;;;;;;;10.79;75.75;101117.50;10378785;28;20416;-66
2023/01/02 20:20:13;;;;;;;3.10;1.87;;;;;;;10.63;76.06;101118.25;10375530;28;20052;-65
2023/01/02 20:25:17;;;;;;;3.40;1.98;;;;;;;10.57;76.58;101121.56;10383534;28;20084;-66
2023/01/02 20:30:20;;;;;;;2.75;1.25;;;;;;;10.51;77.01;101131.09;10380931;28;20053;-65
2023/01/02 20:35:25;;;;;;;3.03;1.30;;;;;;;10.46;76.82;101146.84;10368772;28;20534;-66
2023/01/02 20:40:26;;;;;;;4.50;1.60;;;;;;;10.44;76.95;101146.16;10385536;28;20037;-65
2023/01/02 20:45:28;;;;;;;1.90;1.30;;;;;;;10.41;76.99;101156.41;10381466;28;20053;-65
2023/01/02 20:50:29;;;;;;;6.38;1.98;;;;;;;10.37;76.89;101166.59;10377962;28;20108;-65
2023/01/02 20:55:31;;;;;;;3.70;2.35;;;;;;;10.30;76.86;101163.66;10362871;28;20132;-65
2023/01/02 21:00:33;;;;;;;3.97;1.95;;;;;;;10.34;76.52;101176.81;10379058;28;20163;-65
2023/01/02 21:05:35;;;;;;;2.35;1.00;;;;;;;10.24;76.77;101182.22;10377832;28;20115;-65
2023/01/02 21:10:36;;;;;;;2.53;1.55;;;;;;;10.20;77.11;101180.84;10376964;28;20112;-65
2023/01/02 21:15:40;;;;;;;3.03;1.48;;;;;;;10.24;76.94;101187.59;10382816;28;20045;-67
2023/01/02 21:20:43;;;;;;;3.85;1.30;;;;;;;10.23;77.02;101196.66;10372161;28;20051;-65
2023/01/02 21:25:47;;;;;;;1.75;0.73;;;;;;;10.21;76.91;101193.28;10380435;28;20518;-67
2023/01/02 21:30:49;;;;;;;4.35;1.30;;;;;;;10.25;76.46;101205.44;10381689;28;20123;-66
2023/01/02 21:35:53;;;;;;;3.78;1.70;;;;;;;10.25;76.24;101205.44;10375032;28;21104;-66
2023/01/02 21:42:14;;;;;;;4.03;2.05;;;;;;;10.21;76.16;101220.13;10380700;28;20052;-65
2023/01/02 21:46:17;;;;;;;2.55;1.50;;;;;;;10.14;75.91;101225.28;10374382;28;20208;-64
2023/01/02 21:51:19;;;;;;;4.07;1.63;;;;;;;10.02;75.85;101237.25;10375010;28;20053;-63
2023/01/02 21:56:20;;;;;;;2.95;1.52;;;;;;;9.95;75.98;101247.72;10375826;28;20108;-66
2023/01/02 22:01:21;;;;;;;3.03;1.90;;;;;;;9.90;75.65;101260.78;10378633;28;20112;-65
2023/01/02 22:06:24;;;;;;;5.72;2.80;;;;;;;9.82;75.92;101268.72;10376164;28;20404;-65
2023/01/02 22:16:46;;;;;;;3.47;1.92;;;;;;;9.64;76.29;101290.97;10378030;28;20555;-65
2023/01/02 22:21:47;;;;;;;5.38;2.30;;;;;;;9.61;76.83;101301.16;10378791;28;20132;-65
2023/01/02 22:26:50;;;;;;;3.33;1.73;;;;;;;9.64;76.78;101295.50;10378561;28;20576;-63
2023/01/02 22:31:53;;;;;;;4.03;1.85;;;;;;;9.62;77.15;101301.03;10375813;28;20139;-65
2023/01/02 22:36:55;;;;;;;3.58;1.40;;;;;;;9.65;77.41;101307.94;10377057;28;20054;-66
2023/01/02 22:47:38;;;;;;;2.00;1.67;;;;;;;9.79;76.63;101328.94;10378585;28;20504;-65
2023/01/02 22:52:40;;;;;;;3.45;1.48;;;;;;;9.83;76.68;101335.69;10374443;28;20057;-66
2023/01/02 22:57:42;;;;;;;1.65;1.00;;;;;;;9.82;76.82;101334.00;10374755;28;20069;-63
2023/01/02 23:02:51;;;;;;;1.73;1.10;;;;;;;9.78;77.17;101342.53;10377467;28;20049;-63
2023/01/02 23:07:53;;;;;;;2.65;1.40;;;;;;;9.77;77.40;101347.03;10373763;28;20046;-65
2023/01/02 23:12:54;;;;;;;2.20;1.50;;;;;;;9.80;77.25;101353.97;10380807;28;20048;-66
2023/01/02 23:23:15;;;;;;;2.55;1.55;;;;;;;9.90;76.81;101369.03;10379646;28;20085;-64
2023/01/02 23:28:17;;;;;;;4.28;1.40;;;;;;;9.90;77.04;101373.56;10374982;28;20716;-65
2023/01/02 23:33:38;;;;;;;1.40;1.27;;;;;;;9.89;77.02;101375.41;10371223;28;20057;-66
2023/01/02 23:38:39;;;;;;;3.05;1.00;;;;;;;9.86;77.15;101374.84;10380006;28;20053;-65
2023/01/02 23:43:41;;;;;;;2.03;1.02;;;;;;;9.90;77.11;101365.50;10386369;28;20049;-66
2023/01/02 23:48:42;;;;;;;2.75;0.90;;;;;;;9.86;76.58;101358.75;10384416;28;20791;-65
2023/01/02 23:53:44;;;;;;;1.52;1.17;;;;;;;9.84;76.88;101375.00;10384272;28;20539;-67
2023/01/02 23:58:46;;;;;;;1.48;0.90;;;;;;;9.83;76.69;101372.44;10384378;28;20120;-67
